sensor_id;sensor_type;location;lat;lon;timestamp;temperature;humidity
4366;DHT22;2196;47.422;9.656;2023-08-17T00:00:58;21.10;99.90
4366;DHT22;2196;47.422;9.656;2023-08-17T00:03:25;21.10;99.90
4366;DHT22;2196;47.422;9.656;2023-08-17T00:05:52;21.10;99.90
4366;DHT22;2196;47.422;9.656;2023-08-17T00:08:19;21.00;99.90
4366;DHT22;2196;47.422;9.656;2023-08-17T00:10:46;20.90;99.90
4366;DHT22;2196;47.422;9.656;2023-08-17T00:13:13;20.90;99.90
4366;DHT22;2196;47.422;9.656;2023-08-17T00:15:42;20.90;99.90
4366;DHT22;2196;47.422;9.656;2023-08-17T00:18:10;20.80;99.90
4366;DHT22;2196;47.422;9.656;2023-08-17T00:20:37;20.80;99.90
4366;DHT22;2196;47.422;9.656;2023-08-17T00:23:05;20.80;99.90
4366;DHT22;2196;47.422;9.656;2023-08-17T00:25:32;20.80;99.90
4366;DHT22;2196;47.422;9.656;2023-08-17T00:27:58;20.80;99.90
4366;DHT22;2196;47.422;9.656;2023-08-17T00:30:25;20.70;99.90
4366;DHT22;2196;47.422;9.656;2023-08-17T00:32:54;20.80;99.90
4366;DHT22;2196;47.422;9.656;2023-08-17T00:35:21;20.80;99.90
4366;DHT22;2196;47.422;9.656;2023-08-17T00:37:47;20.70;99.90
4366;DHT22;2196;47.422;9.656;2023-08-17T00:40:15;20.80;99.90
4366;DHT22;2196;47.422;9.656;2023-08-17T00:42:41;20.80;99.90
4366;DHT22;2196;47.422;9.656;2023-08-17T00:45:09;20.80;99.90
4366;DHT22;2196;47.422;9.656;2023-08-17T00:47:36;20.80;99.90
4366;DHT22;2196;47.422;9.656;2023-08-17T00:50:06;20.70;99.90
4366;DHT22;2196;47.422;9.656;2023-08-17T00:52:33;20.70;99.90
4366;DHT22;2196;47.422;9.656;2023-08-17T00:55:01;20.60;99.90
4366;DHT22;2196;47.422;9.656;2023-08-17T00:57:30;20.60;99.90
4366;DHT22;2196;47.422;9.656;2023-08-17T00:59:58;20.60;99.90
4366;DHT22;2196;47.422;9.656;2023-08-17T01:02:26;20.60;99.90
4366;DHT22;2196;47.422;9.656;2023-08-17T01:04:53;20.60;99.90
4366;DHT22;2196;47.422;9.656;2023-08-17T01:07:22;20.50;99.90
4366;DHT22;2196;47.422;9.656;2023-08-17T01:09:49;20.50;99.90
4366;DHT22;2196;47.422;9.656;2023-08-17T01:12:21;20.50;99.90
4366;DHT22;2196;47.422;9.656;2023-08-17T01:14:59;20.50;99.90
4366;DHT22;2196;47.422;9.656;2023-08-17T01:17:31;20.50;99.90
4366;DHT22;2196;47.422;9.656;2023-08-17T01:20:00;20.50;99.90
4366;DHT22;2196;47.422;9.656;2023-08-17T01:22:32;20.40;99.90
4366;DHT22;2196;47.422;9.656;2023-08-17T01:25:03;20.40;99.90
4366;DHT22;2196;47.422;9.656;2023-08-17T01:27:45;20.40;99.90
4366;DHT22;2196;47.422;9.656;2023-08-17T01:30:14;20.40;99.90
4366;DHT22;2196;47.422;9.656;2023-08-17T01:32:46;20.40;99.90
4366;DHT22;2196;47.422;9.656;2023-08-17T01:35:21;20.40;99.90
4366;DHT22;2196;47.422;9.656;2023-08-17T01:37:50;20.30;99.90
4366;DHT22;2196;47.422;9.656;2023-08-17T01:40:21;20.30;99.90
4366;DHT22;2196;47.422;9.656;2023-08-17T01:42:49;20.30;99.90
4366;DHT22;2196;47.422;9.656;2023-08-17T01:45:17;20.30;99.90
4366;DHT22;2196;47.422;9.656;2023-08-17T01:47:45;20.20;99.90
4366;DHT22;2196;47.422;9.656;2023-08-17T01:50:12;20.30;99.90
4366;DHT22;2196;47.422;9.656;2023-08-17T01:52:39;20.20;99.90
4366;DHT22;2196;47.422;9.656;2023-08-17T01:55:06;20.20;99.90
4366;DHT22;2196;47.422;9.656;2023-08-17T01:57:35;20.10;99.90
4366;DHT22;2196;47.422;9.656;2023-08-17T02:00:03;20.10;99.90
4366;DHT22;2196;47.422;9.656;2023-08-17T02:02:30;20.10;99.90
4366;DHT22;2196;47.422;9.656;2023-08-17T02:04:57;20.10;99.90
4366;DHT22;2196;47.422;9.656;2023-08-17T02:07:24;20.10;99.90
4366;DHT22;2196;47.422;9.656;2023-08-17T02:09:51;20.00;99.90
4366;DHT22;2196;47.422;9.656;2023-08-17T02:12:18;20.00;99.90
4366;DHT22;2196;47.422;9.656;2023-08-17T02:14:46;20.00;99.90
4366;DHT22;2196;47.422;9.656;2023-08-17T02:17:13;20.00;99.90
4366;DHT22;2196;47.422;9.656;2023-08-17T02:19:42;20.00;99.90
4366;DHT22;2196;47.422;9.656;2023-08-17T02:22:09;20.00;99.90
4366;DHT22;2196;47.422;9.656;2023-08-17T02:24:36;20.00;99.90
4366;DHT22;2196;47.422;9.656;2023-08-17T02:27:03;20.00;99.90
4366;DHT22;2196;47.422;9.656;2023-08-17T02:29:30;20.00;99.90
4366;DHT22;2196;47.422;9.656;2023-08-17T02:31:59;20.00;99.90
4366;DHT22;2196;47.422;9.656;2023-08-17T02:34:26;19.80;99.90
4366;DHT22;2196;47.422;9.656;2023-08-17T02:36:53;19.90;99.90
4366;DHT22;2196;47.422;9.656;2023-08-17T02:39:20;19.90;99.90
4366;DHT22;2196;47.422;9.656;2023-08-17T02:41:47;19.90;99.90
4366;DHT22;2196;47.422;9.656;2023-08-17T02:44:15;19.90;99.90
4366;DHT22;2196;47.422;9.656;2023-08-17T02:46:42;19.90;99.90
4366;DHT22;2196;47.422;9.656;2023-08-17T02:49:10;19.80;99.90
4366;DHT22;2196;47.422;9.656;2023-08-17T02:51:37;19.80;99.90
4366;DHT22;2196;47.422;9.656;2023-08-17T02:54:04;19.80;99.90
4366;DHT22;2196;47.422;9.656;2023-08-17T02:56:31;19.70;99.90
4366;DHT22;2196;47.422;9.656;2023-08-17T02:58:58;19.70;99.90
4366;DHT22;2196;47.422;9.656;2023-08-17T03:01:25;19.70;99.90
4366;DHT22;2196;47.422;9.656;2023-08-17T03:03:52;19.70;99.90
4366;DHT22;2196;47.422;9.656;2023-08-17T03:06:21;19.70;99.90
4366;DHT22;2196;47.422;9.656;2023-08-17T03:08:48;19.60;99.90
4366;DHT22;2196;47.422;9.656;2023-08-17T03:11:15;19.60;99.90
4366;DHT22;2196;47.422;9.656;2023-08-17T03:13:42;19.60;99.90
4366;DHT22;2196;47.422;9.656;2023-08-17T03:16:09;19.60;99.90
4366;DHT22;2196;47.422;9.656;2023-08-17T03:18:35;19.50;99.90
4366;DHT22;2196;47.422;9.656;2023-08-17T03:21:03;19.40;99.90
4366;DHT22;2196;47.422;9.656;2023-08-17T03:23:32;19.40;99.90
4366;DHT22;2196;47.422;9.656;2023-08-17T03:25:59;19.40;99.90
4366;DHT22;2196;47.422;9.656;2023-08-17T03:28:27;19.40;99.90
4366;DHT22;2196;47.422;9.656;2023-08-17T03:30:55;19.50;99.90
4366;DHT22;2196;47.422;9.656;2023-08-17T03:33:22;19.60;99.90
4366;DHT22;2196;47.422;9.656;2023-08-17T03:35:49;19.60;99.90
4366;DHT22;2196;47.422;9.656;2023-08-17T03:38:16;19.60;99.90
4366;DHT22;2196;47.422;9.656;2023-08-17T03:40:44;19.40;99.90
4366;DHT22;2196;47.422;9.656;2023-08-17T03:43:11;19.40;99.90
4366;DHT22;2196;47.422;9.656;2023-08-17T03:45:40;19.40;99.90
4366;DHT22;2196;47.422;9.656;2023-08-17T03:48:08;19.30;99.90
4366;DHT22;2196;47.422;9.656;2023-08-17T03:50:35;19.20;99.90
4366;DHT22;2196;47.422;9.656;2023-08-17T03:53:02;19.10;99.90
4366;DHT22;2196;47.422;9.656;2023-08-17T03:55:33;19.00;99.90
4366;DHT22;2196;47.422;9.656;2023-08-17T03:58:01;19.00;99.90
4366;DHT22;2196;47.422;9.656;2023-08-17T04:00:31;18.90;99.90
4366;DHT22;2196;47.422;9.656;2023-08-17T04:02:58;18.90;99.90
4366;DHT22;2196;47.422;9.656;2023-08-17T04:05:25;18.90;99.90
4366;DHT22;2196;47.422;9.656;2023-08-17T04:07:54;18.90;99.90
4366;DHT22;2196;47.422;9.656;2023-08-17T04:10:21;18.90;99.90
4366;DHT22;2196;47.422;9.656;2023-08-17T04:12:48;18.90;99.90
4366;DHT22;2196;47.422;9.656;2023-08-17T04:15:16;18.90;99.90
4366;DHT22;2196;47.422;9.656;2023-08-17T04:17:43;18.90;99.90
4366;DHT22;2196;47.422;9.656;2023-08-17T04:20:11;18.90;99.90
4366;DHT22;2196;47.422;9.656;2023-08-17T04:22:38;19.00;99.90
4366;DHT22;2196;47.422;9.656;2023-08-17T04:25:06;19.00;99.90
4366;DHT22;2196;47.422;9.656;2023-08-17T04:27:33;19.00;99.90
4366;DHT22;2196;47.422;9.656;2023-08-17T04:30:01;19.00;99.90
4366;DHT22;2196;47.422;9.656;2023-08-17T04:32:29;19.00;99.90
4366;DHT22;2196;47.422;9.656;2023-08-17T04:34:56;19.10;99.90
4366;DHT22;2196;47.422;9.656;2023-08-17T04:37:23;19.00;99.90
4366;DHT22;2196;47.422;9.656;2023-08-17T04:39:50;19.00;99.90
4366;DHT22;2196;47.422;9.656;2023-08-17T04:42:18;19.00;99.90
4366;DHT22;2196;47.422;9.656;2023-08-17T04:44:45;19.00;99.90
4366;DHT22;2196;47.422;9.656;2023-08-17T04:47:12;19.10;99.90
4366;DHT22;2196;47.422;9.656;2023-08-17T04:49:41;19.10;99.90
4366;DHT22;2196;47.422;9.656;2023-08-17T04:52:08;19.20;99.90
4366;DHT22;2196;47.422;9.656;2023-08-17T04:54:35;19.30;99.90
4366;DHT22;2196;47.422;9.656;2023-08-17T04:57:02;19.30;99.90
4366;DHT22;2196;47.422;9.656;2023-08-17T04:59:31;19.40;99.90
4366;DHT22;2196;47.422;9.656;2023-08-17T05:01:58;19.50;99.90
4366;DHT22;2196;47.422;9.656;2023-08-17T05:04:25;19.60;99.90
4366;DHT22;2196;47.422;9.656;2023-08-17T05:06:53;19.60;99.90
4366;DHT22;2196;47.422;9.656;2023-08-17T05:09:20;19.60;99.90
4366;DHT22;2196;47.422;9.656;2023-08-17T05:11:48;19.70;99.90
4366;DHT22;2196;47.422;9.656;2023-08-17T05:14:15;19.70;99.90
4366;DHT22;2196;47.422;9.656;2023-08-17T05:16:42;19.80;99.90
4366;DHT22;2196;47.422;9.656;2023-08-17T05:19:09;19.90;99.90
4366;DHT22;2196;47.422;9.656;2023-08-17T05:21:36;20.50;99.90
4366;DHT22;2196;47.422;9.656;2023-08-17T05:24:05;21.40;99.90
4366;DHT22;2196;47.422;9.656;2023-08-17T05:26:32;22.40;99.90
4366;DHT22;2196;47.422;9.656;2023-08-17T05:29:01;23.50;99.90
4366;DHT22;2196;47.422;9.656;2023-08-17T05:31:28;24.40;99.90
4366;DHT22;2196;47.422;9.656;2023-08-17T05:33:55;25.20;99.90
4366;DHT22;2196;47.422;9.656;2023-08-17T05:36:22;25.80;99.90
4366;DHT22;2196;47.422;9.656;2023-08-17T05:38:49;26.40;99.90
4366;DHT22;2196;47.422;9.656;2023-08-17T05:41:18;26.70;99.90
4366;DHT22;2196;47.422;9.656;2023-08-17T05:43:45;26.80;99.90
4366;DHT22;2196;47.422;9.656;2023-08-17T05:46:14;27.40;99.90
4366;DHT22;2196;47.422;9.656;2023-08-17T05:48:41;27.60;99.90
4366;DHT22;2196;47.422;9.656;2023-08-17T05:51:09;28.00;99.90
4366;DHT22;2196;47.422;9.656;2023-08-17T05:53:36;28.50;99.90
4366;DHT22;2196;47.422;9.656;2023-08-17T05:56:03;28.80;99.90
4366;DHT22;2196;47.422;9.656;2023-08-17T05:58:32;28.80;99.90
4366;DHT22;2196;47.422;9.656;2023-08-17T06:01:04;29.10;99.90
4366;DHT22;2196;47.422;9.656;2023-08-17T06:03:33;29.50;99.90
4366;DHT22;2196;47.422;9.656;2023-08-17T06:06:00;29.40;99.90
4366;DHT22;2196;47.422;9.656;2023-08-17T06:08:27;29.80;99.90
4366;DHT22;2196;47.422;9.656;2023-08-17T06:10:54;30.20;99.90
4366;DHT22;2196;47.422;9.656;2023-08-17T06:13:21;30.50;99.90
4366;DHT22;2196;47.422;9.656;2023-08-17T06:15:49;30.60;99.90
4366;DHT22;2196;47.422;9.656;2023-08-17T06:18:16;30.90;99.90
4366;DHT22;2196;47.422;9.656;2023-08-17T06:20:45;30.90;99.90
4366;DHT22;2196;47.422;9.656;2023-08-17T06:23:16;30.80;99.90
4366;DHT22;2196;47.422;9.656;2023-08-17T06:25:43;30.70;99.90
4366;DHT22;2196;47.422;9.656;2023-08-17T06:28:10;30.90;99.90
4366;DHT22;2196;47.422;9.656;2023-08-17T06:30:37;30.90;99.90
4366;DHT22;2196;47.422;9.656;2023-08-17T06:33:09;30.70;99.90
4366;DHT22;2196;47.422;9.656;2023-08-17T06:35:36;30.70;99.90
4366;DHT22;2196;47.422;9.656;2023-08-17T06:38:03;30.60;99.90
4366;DHT22;2196;47.422;9.656;2023-08-17T06:40:30;30.70;99.90
4366;DHT22;2196;47.422;9.656;2023-08-17T06:42:57;31.00;99.90
4366;DHT22;2196;47.422;9.656;2023-08-17T06:45:24;31.40;99.90
4366;DHT22;2196;47.422;9.656;2023-08-17T06:47:51;31.60;99.90
4366;DHT22;2196;47.422;9.656;2023-08-17T06:50:20;32.00;99.90
4366;DHT22;2196;47.422;9.656;2023-08-17T06:52:47;32.00;99.90
4366;DHT22;2196;47.422;9.656;2023-08-17T06:55:14;31.90;99.90
4366;DHT22;2196;47.422;9.656;2023-08-17T06:57:41;32.30;99.50
4366;DHT22;2196;47.422;9.656;2023-08-17T07:00:09;32.30;99.10
4366;DHT22;2196;47.422;9.656;2023-08-17T07:02:36;32.00;99.50
4366;DHT22;2196;47.422;9.656;2023-08-17T07:05:04;32.40;99.80
4366;DHT22;2196;47.422;9.656;2023-08-17T07:07:33;32.90;98.60
4366;DHT22;2196;47.422;9.656;2023-08-17T07:10:00;33.20;97.00
4366;DHT22;2196;47.422;9.656;2023-08-17T07:12:27;33.30;97.00
4366;DHT22;2196;47.422;9.656;2023-08-17T07:14:54;33.60;97.00
4366;DHT22;2196;47.422;9.656;2023-08-17T07:17:21;33.80;96.80
4366;DHT22;2196;47.422;9.656;2023-08-17T07:19:48;34.10;97.60
4366;DHT22;2196;47.422;9.656;2023-08-17T07:22:15;33.70;97.90
4366;DHT22;2196;47.422;9.656;2023-08-17T07:24:44;33.80;95.80
4366;DHT22;2196;47.422;9.656;2023-08-17T07:27:11;34.50;95.30
4366;DHT22;2196;47.422;9.656;2023-08-17T07:29:38;34.30;94.20
4366;DHT22;2196;47.422;9.656;2023-08-17T07:32:05;34.50;94.90
4366;DHT22;2196;47.422;9.656;2023-08-17T07:34:32;34.30;94.10
4366;DHT22;2196;47.422;9.656;2023-08-17T07:36:59;34.20;95.90
4366;DHT22;2196;47.422;9.656;2023-08-17T07:39:26;34.10;94.80
4366;DHT22;2196;47.422;9.656;2023-08-17T07:41:55;34.30;94.30
4366;DHT22;2196;47.422;9.656;2023-08-17T07:44:24;34.60;96.00
4366;DHT22;2196;47.422;9.656;2023-08-17T07:46:51;34.40;95.20
4366;DHT22;2196;47.422;9.656;2023-08-17T07:49:18;34.70;93.90
4366;DHT22;2196;47.422;9.656;2023-08-17T07:51:48;34.80;92.60
4366;DHT22;2196;47.422;9.656;2023-08-17T07:54:16;35.00;93.60
4366;DHT22;2196;47.422;9.656;2023-08-17T07:56:43;35.30;92.40
4366;DHT22;2196;47.422;9.656;2023-08-17T07:59:12;35.00;92.90
4366;DHT22;2196;47.422;9.656;2023-08-17T08:01:39;35.20;91.80
4366;DHT22;2196;47.422;9.656;2023-08-17T08:04:07;35.30;91.00
4366;DHT22;2196;47.422;9.656;2023-08-17T08:06:34;35.20;93.50
4366;DHT22;2196;47.422;9.656;2023-08-17T08:09:02;35.10;93.30
4366;DHT22;2196;47.422;9.656;2023-08-17T08:11:29;35.10;93.80
4366;DHT22;2196;47.422;9.656;2023-08-17T08:13:57;35.20;92.80
4366;DHT22;2196;47.422;9.656;2023-08-17T08:16:26;35.30;93.70
4366;DHT22;2196;47.422;9.656;2023-08-17T08:18:55;35.20;93.30
4366;DHT22;2196;47.422;9.656;2023-08-17T08:21:22;35.40;92.40
4366;DHT22;2196;47.422;9.656;2023-08-17T08:23:49;35.60;92.70
4366;DHT22;2196;47.422;9.656;2023-08-17T08:26:16;35.30;91.90
4366;DHT22;2196;47.422;9.656;2023-08-17T08:28:43;35.00;93.60
4366;DHT22;2196;47.422;9.656;2023-08-17T08:31:10;35.10;91.90
4366;DHT22;2196;47.422;9.656;2023-08-17T08:33:38;35.00;93.10
4366;DHT22;2196;47.422;9.656;2023-08-17T08:36:05;35.00;91.40
4366;DHT22;2196;47.422;9.656;2023-08-17T08:38:32;35.20;93.60
4366;DHT22;2196;47.422;9.656;2023-08-17T08:41:01;35.20;91.60
4366;DHT22;2196;47.422;9.656;2023-08-17T08:43:28;35.60;93.40
4366;DHT22;2196;47.422;9.656;2023-08-17T08:45:56;35.40;93.10
4366;DHT22;2196;47.422;9.656;2023-08-17T08:48:26;35.40;91.80
4366;DHT22;2196;47.422;9.656;2023-08-17T08:50:55;35.60;92.50
4366;DHT22;2196;47.422;9.656;2023-08-17T08:53:28;35.70;93.50
4366;DHT22;2196;47.422;9.656;2023-08-17T08:55:58;35.80;91.80
4366;DHT22;2196;47.422;9.656;2023-08-17T08:58:26;35.80;92.20
4366;DHT22;2196;47.422;9.656;2023-08-17T09:00:54;35.80;92.40
4366;DHT22;2196;47.422;9.656;2023-08-17T09:03:22;35.50;92.20
4366;DHT22;2196;47.422;9.656;2023-08-17T09:05:51;35.10;90.70
4366;DHT22;2196;47.422;9.656;2023-08-17T09:08:21;35.00;92.10
4366;DHT22;2196;47.422;9.656;2023-08-17T09:10:49;35.00;94.20
4366;DHT22;2196;47.422;9.656;2023-08-17T09:13:16;35.10;92.80
4366;DHT22;2196;47.422;9.656;2023-08-17T09:15:43;34.90;92.80
4366;DHT22;2196;47.422;9.656;2023-08-17T09:18:10;35.30;92.20
4366;DHT22;2196;47.422;9.656;2023-08-17T09:20:39;35.10;90.90
4366;DHT22;2196;47.422;9.656;2023-08-17T09:23:16;35.50;93.50
4366;DHT22;2196;47.422;9.656;2023-08-17T09:25:47;35.80;91.20
4366;DHT22;2196;47.422;9.656;2023-08-17T09:28:16;35.00;92.50
4366;DHT22;2196;47.422;9.656;2023-08-17T09:30:50;35.10;92.30
4366;DHT22;2196;47.422;9.656;2023-08-17T09:33:19;35.20;93.60
4366;DHT22;2196;47.422;9.656;2023-08-17T09:35:46;35.00;91.40
4366;DHT22;2196;47.422;9.656;2023-08-17T09:38:13;34.90;91.00
4366;DHT22;2196;47.422;9.656;2023-08-17T09:40:40;34.20;92.10
4366;DHT22;2196;47.422;9.656;2023-08-17T09:43:10;34.30;93.90
4366;DHT22;2196;47.422;9.656;2023-08-17T09:45:37;34.70;92.30
4366;DHT22;2196;47.422;9.656;2023-08-17T09:48:07;35.30;91.70
4366;DHT22;2196;47.422;9.656;2023-08-17T09:50:35;35.60;92.80
4366;DHT22;2196;47.422;9.656;2023-08-17T09:53:04;35.80;92.00
4366;DHT22;2196;47.422;9.656;2023-08-17T09:55:32;35.80;90.00
4366;DHT22;2196;47.422;9.656;2023-08-17T09:57:59;35.80;91.60
4366;DHT22;2196;47.422;9.656;2023-08-17T10:00:29;36.50;90.80
4366;DHT22;2196;47.422;9.656;2023-08-17T10:02:57;36.20;92.80
4366;DHT22;2196;47.422;9.656;2023-08-17T10:05:28;35.70;92.90
4366;DHT22;2196;47.422;9.656;2023-08-17T10:07:57;35.90;93.20
4366;DHT22;2196;47.422;9.656;2023-08-17T10:10:30;35.80;92.10
4366;DHT22;2196;47.422;9.656;2023-08-17T10:13:06;35.20;91.80
4366;DHT22;2196;47.422;9.656;2023-08-17T10:15:38;35.00;91.40
4366;DHT22;2196;47.422;9.656;2023-08-17T10:18:13;35.30;92.80
4366;DHT22;2196;47.422;9.656;2023-08-17T10:20:45;35.70;87.60
4366;DHT22;2196;47.422;9.656;2023-08-17T10:23:17;36.00;89.60
4366;DHT22;2196;47.422;9.656;2023-08-17T10:25:46;36.00;93.70
4366;DHT22;2196;47.422;9.656;2023-08-17T10:28:15;36.00;94.70
4366;DHT22;2196;47.422;9.656;2023-08-17T10:30:44;35.10;96.80
4366;DHT22;2196;47.422;9.656;2023-08-17T10:33:11;34.70;96.60
4366;DHT22;2196;47.422;9.656;2023-08-17T10:35:39;34.70;96.70
4366;DHT22;2196;47.422;9.656;2023-08-17T10:38:08;34.40;98.00
4366;DHT22;2196;47.422;9.656;2023-08-17T10:40:37;34.10;99.70
4366;DHT22;2196;47.422;9.656;2023-08-17T10:43:06;33.80;97.60
4366;DHT22;2196;47.422;9.656;2023-08-17T10:45:34;33.70;99.40
4366;DHT22;2196;47.422;9.656;2023-08-17T10:48:34;33.40;99.90
4366;DHT22;2196;47.422;9.656;2023-08-17T10:51:03;32.60;99.10
4366;DHT22;2196;47.422;9.656;2023-08-17T10:53:35;31.80;99.90
4366;DHT22;2196;47.422;9.656;2023-08-17T10:56:07;30.60;99.90
4366;DHT22;2196;47.422;9.656;2023-08-17T10:58:35;30.20;99.90
4366;DHT22;2196;47.422;9.656;2023-08-17T11:01:02;30.10;99.90
4366;DHT22;2196;47.422;9.656;2023-08-17T11:03:29;30.40;99.90
4366;DHT22;2196;47.422;9.656;2023-08-17T11:05:57;30.40;99.90
4366;DHT22;2196;47.422;9.656;2023-08-17T11:08:28;30.70;99.90
4366;DHT22;2196;47.422;9.656;2023-08-17T11:11:13;30.80;99.90
4366;DHT22;2196;47.422;9.656;2023-08-17T11:13:41;30.60;99.90
4366;DHT22;2196;47.422;9.656;2023-08-17T11:16:10;30.30;99.90
4366;DHT22;2196;47.422;9.656;2023-08-17T11:18:37;30.40;99.90
4366;DHT22;2196;47.422;9.656;2023-08-17T11:21:06;30.30;99.90
4366;DHT22;2196;47.422;9.656;2023-08-17T11:23:35;30.40;99.90
4366;DHT22;2196;47.422;9.656;2023-08-17T11:26:03;30.50;99.90
4366;DHT22;2196;47.422;9.656;2023-08-17T11:28:30;30.50;99.90
4366;DHT22;2196;47.422;9.656;2023-08-17T11:31:03;30.50;99.90
4366;DHT22;2196;47.422;9.656;2023-08-17T11:33:31;30.70;99.90
4366;DHT22;2196;47.422;9.656;2023-08-17T11:35:59;30.50;99.90
4366;DHT22;2196;47.422;9.656;2023-08-17T11:38:30;30.50;99.90
4366;DHT22;2196;47.422;9.656;2023-08-17T11:40:57;30.00;99.90
4366;DHT22;2196;47.422;9.656;2023-08-17T11:43:25;30.20;99.90
4366;DHT22;2196;47.422;9.656;2023-08-17T11:45:52;30.30;99.90
4366;DHT22;2196;47.422;9.656;2023-08-17T11:48:19;30.30;99.90
4366;DHT22;2196;47.422;9.656;2023-08-17T11:50:46;30.20;99.90
4366;DHT22;2196;47.422;9.656;2023-08-17T11:53:14;30.20;99.90
4366;DHT22;2196;47.422;9.656;2023-08-17T11:55:43;30.00;99.90
4366;DHT22;2196;47.422;9.656;2023-08-17T11:58:10;29.80;99.90
4366;DHT22;2196;47.422;9.656;2023-08-17T12:00:40;29.50;99.90
4366;DHT22;2196;47.422;9.656;2023-08-17T12:03:08;29.20;99.90
4366;DHT22;2196;47.422;9.656;2023-08-17T12:05:35;29.20;99.90
4366;DHT22;2196;47.422;9.656;2023-08-17T12:08:03;29.30;99.90
4366;DHT22;2196;47.422;9.656;2023-08-17T12:10:31;29.30;99.90
4366;DHT22;2196;47.422;9.656;2023-08-17T12:12:59;29.40;99.90
4366;DHT22;2196;47.422;9.656;2023-08-17T12:15:30;29.30;99.90
4366;DHT22;2196;47.422;9.656;2023-08-17T12:18:00;29.40;99.90
4366;DHT22;2196;47.422;9.656;2023-08-17T12:20:27;29.40;99.90
4366;DHT22;2196;47.422;9.656;2023-08-17T12:22:57;29.30;99.90
4366;DHT22;2196;47.422;9.656;2023-08-17T12:25:25;29.10;99.90
4366;DHT22;2196;47.422;9.656;2023-08-17T12:27:53;29.10;99.90
4366;DHT22;2196;47.422;9.656;2023-08-17T12:30:28;29.10;99.90
4366;DHT22;2196;47.422;9.656;2023-08-17T12:32:57;29.10;99.90
4366;DHT22;2196;47.422;9.656;2023-08-17T12:35:24;29.10;99.90
4366;DHT22;2196;47.422;9.656;2023-08-17T12:37:51;29.20;99.90
4366;DHT22;2196;47.422;9.656;2023-08-17T12:40:18;29.40;99.90
4366;DHT22;2196;47.422;9.656;2023-08-17T12:42:45;29.40;99.90
4366;DHT22;2196;47.422;9.656;2023-08-17T12:45:12;29.40;99.90
4366;DHT22;2196;47.422;9.656;2023-08-17T12:47:40;29.10;99.90
4366;DHT22;2196;47.422;9.656;2023-08-17T12:50:08;29.00;99.90
4366;DHT22;2196;47.422;9.656;2023-08-17T12:52:36;29.00;99.90
4366;DHT22;2196;47.422;9.656;2023-08-17T12:55:03;28.90;99.90
4366;DHT22;2196;47.422;9.656;2023-08-17T12:57:30;28.90;99.90
4366;DHT22;2196;47.422;9.656;2023-08-17T12:59:57;28.90;99.90
4366;DHT22;2196;47.422;9.656;2023-08-17T13:02:24;28.80;99.90
4366;DHT22;2196;47.422;9.656;2023-08-17T13:04:52;28.80;99.90
4366;DHT22;2196;47.422;9.656;2023-08-17T13:07:19;28.80;99.90
4366;DHT22;2196;47.422;9.656;2023-08-17T13:09:46;28.90;99.90
4366;DHT22;2196;47.422;9.656;2023-08-17T13:12:13;28.90;99.90
4366;DHT22;2196;47.422;9.656;2023-08-17T13:14:40;28.90;99.90
4366;DHT22;2196;47.422;9.656;2023-08-17T13:17:07;28.80;99.90
4366;DHT22;2196;47.422;9.656;2023-08-17T13:19:34;28.80;99.90
4366;DHT22;2196;47.422;9.656;2023-08-17T13:22:02;28.80;99.90
4366;DHT22;2196;47.422;9.656;2023-08-17T13:24:30;28.90;99.90
4366;DHT22;2196;47.422;9.656;2023-08-17T13:26:57;28.90;99.90
4366;DHT22;2196;47.422;9.656;2023-08-17T13:29:24;29.00;99.90
4366;DHT22;2196;47.422;9.656;2023-08-17T13:31:51;29.00;99.90
4366;DHT22;2196;47.422;9.656;2023-08-17T13:34:18;29.10;99.90
4366;DHT22;2196;47.422;9.656;2023-08-17T13:36:45;29.20;99.90
4366;DHT22;2196;47.422;9.656;2023-08-17T13:39:13;29.30;99.90
4366;DHT22;2196;47.422;9.656;2023-08-17T13:41:41;29.40;99.90
4366;DHT22;2196;47.422;9.656;2023-08-17T13:44:08;29.60;99.90
4366;DHT22;2196;47.422;9.656;2023-08-17T13:46:35;29.40;99.90
4366;DHT22;2196;47.422;9.656;2023-08-17T13:49:04;29.30;99.90
4366;DHT22;2196;47.422;9.656;2023-08-17T13:51:31;29.30;99.90
4366;DHT22;2196;47.422;9.656;2023-08-17T13:53:58;29.40;99.90
4366;DHT22;2196;47.422;9.656;2023-08-17T13:56:26;29.40;99.90
4366;DHT22;2196;47.422;9.656;2023-08-17T13:58:53;29.50;99.90
4366;DHT22;2196;47.422;9.656;2023-08-17T14:01:20;29.50;99.90
4366;DHT22;2196;47.422;9.656;2023-08-17T14:03:47;29.50;99.90
4366;DHT22;2196;47.422;9.656;2023-08-17T14:06:14;29.50;99.90
4366;DHT22;2196;47.422;9.656;2023-08-17T14:08:41;29.50;99.90
4366;DHT22;2196;47.422;9.656;2023-08-17T14:11:08;29.50;99.90
4366;DHT22;2196;47.422;9.656;2023-08-17T14:13:36;29.30;99.90
4366;DHT22;2196;47.422;9.656;2023-08-17T14:16:04;29.40;99.90
4366;DHT22;2196;47.422;9.656;2023-08-17T14:18:31;29.40;99.90
4366;DHT22;2196;47.422;9.656;2023-08-17T14:20:58;29.40;99.90
4366;DHT22;2196;47.422;9.656;2023-08-17T14:23:25;29.40;99.90
4366;DHT22;2196;47.422;9.656;2023-08-17T14:25:52;29.40;99.90
4366;DHT22;2196;47.422;9.656;2023-08-17T14:28:19;29.30;99.90
4366;DHT22;2196;47.422;9.656;2023-08-17T14:30:48;29.20;99.90
4366;DHT22;2196;47.422;9.656;2023-08-17T14:33:14;29.10;99.90
4366;DHT22;2196;47.422;9.656;2023-08-17T14:35:41;28.80;99.90
4366;DHT22;2196;47.422;9.656;2023-08-17T14:38:08;28.80;99.90
4366;DHT22;2196;47.422;9.656;2023-08-17T14:40:41;28.70;99.90
4366;DHT22;2196;47.422;9.656;2023-08-17T14:43:08;28.70;99.90
4366;DHT22;2196;47.422;9.656;2023-08-17T14:45:37;28.90;99.90
4366;DHT22;2196;47.422;9.656;2023-08-17T14:48:08;29.00;99.90
4366;DHT22;2196;47.422;9.656;2023-08-17T14:50:35;28.90;99.90
4366;DHT22;2196;47.422;9.656;2023-08-17T14:53:05;28.80;99.90
4366;DHT22;2196;47.422;9.656;2023-08-17T14:55:33;28.80;99.90
4366;DHT22;2196;47.422;9.656;2023-08-17T14:58:00;28.70;99.90
4366;DHT22;2196;47.422;9.656;2023-08-17T15:00:27;28.60;99.90
4366;DHT22;2196;47.422;9.656;2023-08-17T15:02:56;28.40;99.90
4366;DHT22;2196;47.422;9.656;2023-08-17T15:05:25;28.20;99.90
4366;DHT22;2196;47.422;9.656;2023-08-17T15:07:52;28.10;99.90
4366;DHT22;2196;47.422;9.656;2023-08-17T15:10:19;28.10;99.90
4366;DHT22;2196;47.422;9.656;2023-08-17T15:12:46;27.80;99.90
4366;DHT22;2196;47.422;9.656;2023-08-17T15:15:13;27.70;99.90
4366;DHT22;2196;47.422;9.656;2023-08-17T15:17:40;27.60;99.90
4366;DHT22;2196;47.422;9.656;2023-08-17T15:20:07;27.60;99.90
4366;DHT22;2196;47.422;9.656;2023-08-17T15:22:36;27.40;99.90
4366;DHT22;2196;47.422;9.656;2023-08-17T15:25:03;27.20;99.90
4366;DHT22;2196;47.422;9.656;2023-08-17T15:27:30;27.00;99.90
4366;DHT22;2196;47.422;9.656;2023-08-17T15:29:57;26.90;99.90
4366;DHT22;2196;47.422;9.656;2023-08-17T15:32:24;26.80;99.90
4366;DHT22;2196;47.422;9.656;2023-08-17T15:34:51;26.60;99.90
4366;DHT22;2196;47.422;9.656;2023-08-17T15:37:18;26.60;99.90
4366;DHT22;2196;47.422;9.656;2023-08-17T15:39:47;26.30;99.90
4366;DHT22;2196;47.422;9.656;2023-08-17T15:42:14;26.30;99.90
4366;DHT22;2196;47.422;9.656;2023-08-17T15:44:40;26.40;99.90
4366;DHT22;2196;47.422;9.656;2023-08-17T15:47:07;26.40;99.90
4366;DHT22;2196;47.422;9.656;2023-08-17T15:49:34;26.30;99.90
4366;DHT22;2196;47.422;9.656;2023-08-17T15:52:01;26.30;99.90
4366;DHT22;2196;47.422;9.656;2023-08-17T15:54:28;26.20;99.90
4366;DHT22;2196;47.422;9.656;2023-08-17T15:56:57;26.00;99.90
4366;DHT22;2196;47.422;9.656;2023-08-17T15:59:24;25.70;99.90
4366;DHT22;2196;47.422;9.656;2023-08-17T16:01:51;25.50;99.90
4366;DHT22;2196;47.422;9.656;2023-08-17T16:04:18;25.40;99.90
4366;DHT22;2196;47.422;9.656;2023-08-17T16:06:44;25.30;99.90